createdAt,value
2018-05-16T00:00:34.287Z,2.97
2018-05-16T00:03:02.053Z,3.70
2018-05-16T00:05:29.813Z,3.00
2018-05-16T00:07:57.527Z,3.13
2018-05-16T00:10:25.240Z,3.00
2018-05-16T00:12:52.999Z,3.63
2018-05-16T00:15:20.872Z,3.30
2018-05-16T00:17:48.596Z,3.20
2018-05-16T00:20:16.300Z,3.07
2018-05-16T00:22:43.958Z,3.07
2018-05-16T00:25:11.769Z,2.87
2018-05-16T00:27:39.586Z,3.30
2018-05-16T00:30:07.555Z,3.33
2018-05-16T00:32:35.329Z,3.20
2018-05-16T00:35:03.136Z,2.90
2018-05-16T00:37:30.903Z,3.27
2018-05-16T00:39:58.646Z,3.73
2018-05-16T00:42:26.384Z,3.70
2018-05-16T00:44:54.152Z,3.20
2018-05-16T00:47:21.872Z,3.50
2018-05-16T00:49:49.678Z,3.17
2018-05-16T00:52:17.406Z,3.47
2018-05-16T00:54:45.207Z,3.23
2018-05-16T00:57:12.972Z,3.60
2018-05-16T00:59:40.741Z,3.70
2018-05-16T01:02:08.606Z,4.30
2018-05-16T01:04:36.436Z,2.93
2018-05-16T01:07:04.135Z,2.20
2018-05-16T01:09:32.006Z,2.50
2018-05-16T01:11:59.866Z,2.33
2018-05-16T01:14:27.631Z,2.00
2018-05-16T01:16:55.517Z,2.17
2018-05-16T01:19:23.266Z,2.80
2018-05-16T01:21:51.129Z,2.00
2018-05-16T01:24:18.899Z,2.23
2018-05-16T01:26:46.760Z,2.50
2018-05-16T01:29:14.524Z,2.13
2018-05-16T01:31:42.282Z,2.30
2018-05-16T01:34:10.054Z,2.00
2018-05-16T01:36:37.922Z,2.13
2018-05-16T01:39:05.684Z,1.93
2018-05-16T01:41:33.654Z,1.93
2018-05-16T01:44:01.315Z,2.30
2018-05-16T01:46:29.083Z,2.10
2018-05-16T01:49:08.708Z,2.93
2018-05-16T01:51:36.553Z,2.57
2018-05-16T01:54:04.517Z,2.23
2018-05-16T01:56:32.216Z,2.30
2018-05-16T01:58:59.986Z,2.70
2018-05-16T02:01:27.752Z,2.40
2018-05-16T02:03:55.514Z,2.80
2018-05-16T02:06:23.225Z,2.77
2018-05-16T02:08:51.352Z,2.50
2018-05-16T02:11:19.116Z,3.13
2018-05-16T02:13:46.775Z,2.53
2018-05-16T02:16:14.542Z,2.60
2018-05-16T02:18:42.308Z,2.00
2018-05-16T02:21:10.024Z,2.20
2018-05-16T02:23:37.839Z,2.53
2018-05-16T02:26:05.540Z,2.37
2018-05-16T02:28:33.264Z,2.60
2018-05-16T02:31:01.748Z,2.10
2018-05-16T02:33:29.614Z,2.30
2018-05-16T02:35:57.480Z,4.40
2018-05-16T02:38:25.243Z,2.70
2018-05-16T02:40:53.155Z,3.13
2018-05-16T02:43:20.980Z,3.50
2018-05-16T02:45:48.846Z,3.00
2018-05-16T02:48:16.608Z,3.43
2018-05-16T02:50:44.479Z,2.50
2018-05-16T02:53:12.215Z,3.37
2018-05-16T02:55:40.004Z,2.30
2018-05-16T02:58:07.667Z,2.60
2018-05-16T03:00:35.637Z,3.10
2018-05-16T03:03:03.404Z,2.77
2018-05-16T03:05:31.275Z,4.20
2018-05-16T03:07:59.033Z,3.50
2018-05-16T03:10:26.900Z,3.80
2018-05-16T03:12:54.649Z,3.30
2018-05-16T03:15:22.429Z,3.80
2018-05-16T03:17:50.382Z,3.40
2018-05-16T03:20:18.165Z,3.83
2018-05-16T03:22:45.892Z,4.67
2018-05-16T03:25:13.692Z,3.90
2018-05-16T03:27:41.423Z,3.90
2018-05-16T03:30:09.432Z,4.20
2018-05-16T03:32:37.276Z,3.83
2018-05-16T03:35:05.120Z,3.73
2018-05-16T03:37:32.929Z,4.10
2018-05-16T03:40:00.804Z,4.27
2018-05-16T03:42:28.493Z,3.97
2018-05-16T03:44:56.313Z,4.97
2018-05-16T03:47:24.154Z,4.17
2018-05-16T03:49:51.959Z,3.60
2018-05-16T03:52:19.761Z,4.20
2018-05-16T03:54:47.581Z,3.77
2018-05-16T03:57:27.327Z,4.90
2018-05-16T04:00:07.160Z,4.00
2018-05-16T04:02:46.826Z,3.97
2018-05-16T04:05:14.630Z,4.20
2018-05-16T04:07:42.341Z,4.60
2018-05-16T04:10:10.215Z,5.73
2018-05-16T04:12:38.117Z,4.30
2018-05-16T04:15:05.947Z,3.33
2018-05-16T04:17:33.814Z,3.70
2018-05-16T04:20:01.477Z,4.17
2018-05-16T04:22:29.187Z,3.27
2018-05-16T04:24:57.006Z,4.30
2018-05-16T04:27:24.872Z,3.90
2018-05-16T04:29:52.586Z,4.40
2018-05-16T04:32:20.534Z,4.20
2018-05-16T04:34:48.268Z,4.10
2018-05-16T04:37:15.982Z,3.40
2018-05-16T04:39:43.750Z,4.13
2018-05-16T04:42:11.561Z,4.03
2018-05-16T04:44:39.220Z,3.53
2018-05-16T04:47:06.886Z,3.90
2018-05-16T04:49:34.549Z,3.10
2018-05-16T04:52:02.419Z,3.37
2018-05-16T04:54:30.180Z,3.80
2018-05-16T04:56:58.047Z,4.33
2018-05-16T04:59:25.811Z,4.17
2018-05-16T05:01:53.783Z,4.50
2018-05-16T05:04:21.544Z,4.20
2018-05-16T05:06:49.514Z,4.30
2018-05-16T05:09:17.347Z,3.93
2018-05-16T05:11:45.044Z,3.70
2018-05-16T05:14:12.909Z,3.70
2018-05-16T05:16:40.776Z,4.63
2018-05-16T05:19:08.444Z,4.43
2018-05-16T05:21:36.203Z,4.00
2018-05-16T05:24:03.868Z,3.57
2018-05-16T05:26:31.691Z,4.50
2018-05-16T05:28:59.408Z,3.63
2018-05-16T05:31:27.160Z,4.50
2018-05-16T05:33:54.921Z,5.07
2018-05-16T05:36:22.585Z,4.47
2018-05-16T05:38:50.401Z,4.80
2018-05-16T05:41:18.229Z,4.40
2018-05-16T05:43:45.963Z,3.70
2018-05-16T05:46:13.746Z,4.20
2018-05-16T05:48:41.630Z,3.70
2018-05-16T05:51:09.278Z,4.13
2018-05-16T05:53:37.099Z,3.50
2018-05-16T05:56:04.906Z,3.83
2018-05-16T05:58:32.672Z,3.40
2018-05-16T06:01:00.375Z,4.20
2018-05-16T06:03:28.204Z,3.90
2018-05-16T06:05:55.932Z,3.70
2018-05-16T06:08:23.711Z,3.77
2018-05-16T06:10:51.441Z,3.60
2018-05-16T06:13:19.099Z,3.67
2018-05-16T06:15:46.926Z,3.87
2018-05-16T06:18:14.788Z,3.50
2018-05-16T06:20:43.166Z,4.00
2018-05-16T06:23:10.930Z,3.37
2018-05-16T06:25:38.641Z,3.20
2018-05-16T06:28:06.504Z,3.73
2018-05-16T06:30:34.373Z,3.87
2018-05-16T06:33:02.188Z,3.57
2018-05-16T06:35:29.962Z,3.93
2018-05-16T06:37:57.724Z,3.00
2018-05-16T06:40:25.666Z,3.70
2018-05-16T06:42:53.554Z,3.53
2018-05-16T06:45:21.946Z,3.90
2018-05-16T06:47:49.711Z,3.40
2018-05-16T06:50:17.570Z,3.37
2018-05-16T06:52:45.216Z,3.13
2018-05-16T06:55:13.091Z,3.90
2018-05-16T06:57:40.864Z,3.97
2018-05-16T07:00:08.627Z,3.37
2018-05-16T07:02:36.318Z,3.63
2018-05-16T07:05:04.054Z,3.50
2018-05-16T07:07:31.711Z,2.73
2018-05-16T07:09:59.370Z,3.47
2018-05-16T07:12:27.107Z,2.70
2018-05-16T07:14:54.872Z,3.70
2018-05-16T07:17:22.773Z,2.63
2018-05-16T07:19:50.543Z,2.60
2018-05-16T07:22:18.164Z,3.40
2018-05-16T07:24:45.964Z,2.83
2018-05-16T07:27:13.627Z,2.70
2018-05-16T07:29:41.283Z,3.07
2018-05-16T07:32:08.951Z,3.30
2018-05-16T07:34:36.711Z,3.00
2018-05-16T07:37:04.586Z,2.80
2018-05-16T07:39:32.349Z,2.70
2018-05-16T07:42:00.219Z,2.60
2018-05-16T07:44:27.987Z,2.93
2018-05-16T07:46:55.841Z,3.03
2018-05-16T07:49:23.609Z,3.30
2018-05-16T07:51:51.271Z,2.80
2018-05-16T07:54:18.940Z,2.53
2018-05-16T07:56:46.757Z,3.10
2018-05-16T07:59:14.464Z,2.87
2018-05-16T08:01:42.193Z,2.70
2018-05-16T08:04:10.098Z,2.90
2018-05-16T08:06:37.860Z,3.00
2018-05-16T08:09:05.695Z,3.00
2018-05-16T08:11:33.415Z,3.00
2018-05-16T08:14:01.155Z,3.10
2018-05-16T08:16:28.918Z,3.10
2018-05-16T08:18:56.574Z,2.60
2018-05-16T08:21:24.237Z,2.87
2018-05-16T08:23:52.007Z,3.00
2018-05-16T08:26:19.872Z,3.30
2018-05-16T08:28:47.644Z,3.33
2018-05-16T08:31:15.458Z,4.23
2018-05-16T08:33:43.271Z,3.13
2018-05-16T08:36:11.139Z,3.43
2018-05-16T08:38:38.871Z,3.57
2018-05-16T08:41:06.665Z,3.30
2018-05-16T08:43:34.431Z,3.00
2018-05-16T08:46:02.206Z,2.70
2018-05-16T08:48:29.956Z,3.50
2018-05-16T08:50:57.723Z,3.57
2018-05-16T08:53:25.540Z,3.27
2018-05-16T08:55:53.210Z,3.30
2018-05-16T08:58:21.015Z,3.50
2018-05-16T09:00:48.785Z,3.77
2018-05-16T09:03:16.652Z,2.80
2018-05-16T09:05:44.413Z,3.00
2018-05-16T09:08:12.285Z,3.23
2018-05-16T09:10:39.915Z,3.17
2018-05-16T09:13:07.749Z,3.30
2018-05-16T09:15:35.574Z,3.43
2018-05-16T09:18:03.237Z,3.40
2018-05-16T09:20:31.115Z,3.20
2018-05-16T09:22:59.176Z,3.40
2018-05-16T09:25:26.836Z,3.20
2018-05-16T09:27:54.553Z,3.20
2018-05-16T09:30:22.172Z,2.97
2018-05-16T09:32:49.831Z,3.10
2018-05-16T09:35:17.685Z,3.10
2018-05-16T09:37:45.356Z,3.57
2018-05-16T09:40:13.074Z,2.80
2018-05-16T09:42:40.878Z,3.20
2018-05-16T09:45:08.751Z,2.90
2018-05-16T09:47:37.644Z,2.30
2018-05-16T09:50:06.701Z,3.40
2018-05-16T09:52:34.604Z,3.23
2018-05-16T09:55:02.537Z,2.80
2018-05-16T09:57:30.251Z,3.47
2018-05-16T09:59:58.096Z,2.67
2018-05-16T10:02:25.787Z,3.30
2018-05-16T10:04:53.634Z,3.80
2018-05-16T10:07:21.297Z,3.17
2018-05-16T10:09:49.227Z,3.27
2018-05-16T10:12:16.928Z,3.53
2018-05-16T10:14:44.770Z,3.40
2018-05-16T10:17:12.450Z,3.00
2018-05-16T10:19:40.219Z,3.50
2018-05-16T10:22:07.923Z,3.13
2018-05-16T10:24:35.747Z,2.97
2018-05-16T10:27:03.416Z,3.40
2018-05-16T10:29:31.277Z,3.97
2018-05-16T10:31:59.038Z,3.10
2018-05-16T10:34:26.921Z,3.10
2018-05-16T10:36:54.568Z,3.27
2018-05-16T10:39:22.392Z,3.70
2018-05-16T10:41:50.097Z,3.43
2018-05-16T10:44:17.926Z,3.90
2018-05-16T10:46:45.544Z,3.30
2018-05-16T10:49:13.396Z,3.40
2018-05-16T10:51:41.161Z,3.40
2018-05-16T10:54:09.141Z,3.80
2018-05-16T10:56:36.890Z,3.40
2018-05-16T10:59:04.959Z,3.60
2018-05-16T11:01:32.720Z,3.73
2018-05-16T11:04:00.793Z,3.60
2018-05-16T11:06:28.684Z,3.33
2018-05-16T11:08:57.343Z,3.80
2018-05-16T11:11:25.215Z,3.07
2018-05-16T11:13:53.202Z,3.77
2018-05-16T11:16:21.621Z,3.20
2018-05-16T11:18:49.535Z,2.93
2018-05-16T11:21:17.568Z,2.93
2018-05-16T11:23:46.132Z,3.30
2018-05-16T11:26:13.849Z,3.23
2018-05-16T11:28:41.556Z,3.10
2018-05-16T11:31:09.795Z,3.50
2018-05-16T11:33:37.657Z,2.90
2018-05-16T11:36:05.556Z,3.43
2018-05-16T11:38:33.282Z,3.17
2018-05-16T11:41:01.052Z,3.00
2018-05-16T11:43:28.711Z,2.40
2018-05-16T11:45:56.374Z,3.50
2018-05-16T11:48:24.142Z,3.17
2018-05-16T11:50:51.804Z,3.80
2018-05-16T11:53:19.569Z,3.20
2018-05-16T11:55:47.338Z,2.97
2018-05-16T11:58:15.403Z,2.87
2018-05-16T12:00:43.226Z,2.67
2018-05-16T12:03:11.038Z,3.07
2018-05-16T12:05:38.761Z,2.70
2018-05-16T12:08:06.564Z,2.83
2018-05-16T12:10:34.171Z,2.33
2018-05-16T12:13:01.828Z,2.67
2018-05-16T12:15:29.458Z,2.70
2018-05-16T12:17:57.110Z,2.83
2018-05-16T12:20:24.876Z,3.03
2018-05-16T12:22:52.744Z,2.97
2018-05-16T12:25:20.404Z,2.50
2018-05-16T12:27:48.169Z,2.90
2018-05-16T12:30:15.932Z,3.20
2018-05-16T12:32:43.869Z,2.80
2018-05-16T12:35:11.668Z,3.00
2018-05-16T12:37:39.435Z,3.03
2018-05-16T12:40:07.298Z,2.93
2018-05-16T12:42:35.236Z,2.27
2018-05-16T12:45:02.929Z,2.60
2018-05-16T12:47:30.748Z,2.80
2018-05-16T12:49:58.460Z,2.90
2018-05-16T12:52:26.222Z,3.00
2018-05-16T12:54:53.995Z,3.27
2018-05-16T12:57:21.747Z,3.20
2018-05-16T12:59:49.458Z,2.97
2018-05-16T13:02:17.179Z,2.87
2018-05-16T13:04:44.835Z,3.10
2018-05-16T13:07:12.658Z,3.30
2018-05-16T13:09:40.475Z,2.90
2018-05-16T13:12:08.126Z,2.53
2018-05-16T13:14:35.858Z,2.93
2018-05-16T13:17:03.664Z,2.43
2018-05-16T13:19:31.427Z,2.27
2018-05-16T13:21:59.091Z,2.93
2018-05-16T13:24:26.959Z,2.40
2018-05-16T13:26:54.740Z,3.07
2018-05-16T13:29:22.491Z,2.50
2018-05-16T13:31:50.306Z,2.80
2018-05-16T13:34:18.222Z,2.97
2018-05-16T13:36:45.938Z,3.00
2018-05-16T13:39:13.748Z,2.50
2018-05-16T13:41:41.513Z,4.13
2018-05-16T13:44:09.177Z,3.40
2018-05-16T13:46:36.940Z,3.63
2018-05-16T13:49:05.011Z,4.10
2018-05-16T13:51:32.715Z,3.43
2018-05-16T13:54:00.433Z,3.40
2018-05-16T13:56:28.144Z,3.60
2018-05-16T13:58:55.964Z,3.90
2018-05-16T14:01:23.677Z,3.87
2018-05-16T14:03:51.496Z,3.40
2018-05-16T14:06:19.363Z,3.73
2018-05-16T14:08:47.131Z,3.47
2018-05-16T14:11:14.997Z,3.90
2018-05-16T14:13:42.839Z,4.27
2018-05-16T14:16:10.524Z,3.50
2018-05-16T14:18:38.288Z,4.20
2018-05-16T14:21:06.067Z,3.83
2018-05-16T14:23:33.937Z,4.40
2018-05-16T14:26:01.786Z,4.30
2018-05-16T14:28:29.448Z,5.07
2018-05-16T14:30:57.230Z,4.60
2018-05-16T14:33:25.721Z,4.37
2018-05-16T14:35:53.905Z,4.33
2018-05-16T14:38:21.742Z,3.90
2018-05-16T14:40:49.476Z,4.67
2018-05-16T14:43:17.377Z,4.13
2018-05-16T14:45:45.233Z,4.50
2018-05-16T14:48:13.101Z,5.13
2018-05-16T14:50:40.867Z,4.97
2018-05-16T14:53:08.637Z,4.23
2018-05-16T14:55:36.459Z,4.33
2018-05-16T14:58:04.366Z,4.37
2018-05-16T15:00:32.167Z,3.83
2018-05-16T15:02:59.995Z,4.53
2018-05-16T15:05:27.822Z,4.60
2018-05-16T15:07:55.626Z,3.70
2018-05-16T15:10:23.355Z,4.10
2018-05-16T15:12:51.264Z,3.40
2018-05-16T15:15:19.025Z,3.90
2018-05-16T15:17:46.891Z,4.40
2018-05-16T15:20:14.595Z,3.90
2018-05-16T15:22:42.245Z,3.80
2018-05-16T15:25:09.980Z,4.30
2018-05-16T15:27:37.847Z,3.70
2018-05-16T15:30:05.918Z,3.80
2018-05-16T15:32:33.567Z,4.60
2018-05-16T15:35:01.205Z,3.80
2018-05-16T15:37:28.905Z,4.10
2018-05-16T15:39:56.669Z,3.77
2018-05-16T15:42:24.434Z,3.87
2018-05-16T15:44:52.140Z,4.13
2018-05-16T15:47:20.065Z,4.00
2018-05-16T15:49:47.932Z,3.37
2018-05-16T15:52:15.694Z,4.30
2018-05-16T15:54:43.463Z,3.50
2018-05-16T15:57:11.329Z,3.40
2018-05-16T15:59:39.052Z,3.77
2018-05-16T16:02:07.033Z,2.60
2018-05-16T16:04:34.935Z,3.50
2018-05-16T16:07:03.001Z,3.70
2018-05-16T16:09:30.764Z,4.67
2018-05-16T16:11:58.631Z,3.70
2018-05-16T16:14:26.501Z,3.80
2018-05-16T16:16:54.163Z,3.37
2018-05-16T16:19:21.923Z,4.30
2018-05-16T16:21:49.815Z,4.07
2018-05-16T16:24:17.656Z,3.60
2018-05-16T16:26:45.374Z,2.70
2018-05-16T16:29:13.186Z,3.60
2018-05-16T16:31:40.879Z,3.40
2018-05-16T16:34:08.716Z,3.17
2018-05-16T16:36:36.440Z,3.13
2018-05-16T16:39:04.414Z,2.90
2018-05-16T16:41:32.215Z,3.40
2018-05-16T16:44:00.086Z,3.23
2018-05-16T16:46:27.808Z,3.60
2018-05-16T16:48:55.814Z,3.70
2018-05-16T16:51:23.784Z,2.90
2018-05-16T16:53:51.651Z,3.73
2018-05-16T16:56:19.381Z,3.60
2018-05-16T16:58:47.181Z,3.13
2018-05-16T17:01:14.946Z,3.30
2018-05-16T17:03:42.752Z,3.20
2018-05-16T17:06:10.475Z,3.70
2018-05-16T17:08:38.237Z,3.20
2018-05-16T17:11:05.904Z,2.83
2018-05-16T17:13:33.766Z,3.63
2018-05-16T17:16:02.749Z,3.47
2018-05-16T17:18:30.476Z,3.33
2018-05-16T17:20:58.295Z,3.03
2018-05-16T17:23:26.058Z,3.37
2018-05-16T17:25:54.966Z,3.80
2018-05-16T17:28:22.722Z,3.57
2018-05-16T17:30:50.579Z,3.70
2018-05-16T17:33:18.341Z,3.70
2018-05-16T17:35:46.217Z,3.70
2018-05-16T17:38:13.869Z,3.60
2018-05-16T17:40:41.706Z,3.70
2018-05-16T17:43:09.396Z,4.57
2018-05-16T17:45:37.266Z,3.80
2018-05-16T17:48:05.036Z,3.60
2018-05-16T17:50:32.875Z,4.30
2018-05-16T17:53:00.764Z,3.77
2018-05-16T17:55:28.482Z,4.30
2018-05-16T17:57:56.199Z,3.67
2018-05-16T18:00:23.992Z,3.90
2018-05-16T18:02:51.822Z,3.83
2018-05-16T18:05:19.546Z,3.43
2018-05-16T18:07:47.352Z,3.30
2018-05-16T18:10:15.320Z,4.00
2018-05-16T18:12:43.088Z,3.97
2018-05-16T18:15:22.847Z,4.20
2018-05-16T18:17:50.499Z,3.77
2018-05-16T18:20:18.361Z,3.60
2018-05-16T18:22:46.126Z,3.53
2018-05-16T18:25:13.835Z,3.90
2018-05-16T18:27:41.494Z,4.10
2018-05-16T18:30:09.212Z,4.07
2018-05-16T18:32:36.879Z,4.20
2018-05-16T18:35:04.539Z,3.80
2018-05-16T18:37:32.186Z,3.90
2018-05-16T18:39:59.976Z,3.90
2018-05-16T18:42:27.865Z,4.30
2018-05-16T18:44:55.600Z,3.50
2018-05-16T18:47:23.465Z,3.53
2018-05-16T18:49:51.184Z,4.13
2018-05-16T18:52:18.844Z,3.67
2018-05-16T18:54:46.670Z,4.23
2018-05-16T18:57:14.479Z,3.77
2018-05-16T18:59:42.246Z,4.47
2018-05-16T19:02:09.898Z,3.73
2018-05-16T19:04:37.518Z,4.50
2018-05-16T19:07:05.263Z,4.40
2018-05-16T19:09:32.926Z,4.13
2018-05-16T19:12:00.586Z,4.17
2018-05-16T19:14:28.368Z,4.10
2018-05-16T19:16:56.228Z,4.17
2018-05-16T19:19:24.094Z,4.17
2018-05-16T19:21:51.753Z,4.17
2018-05-16T19:24:19.424Z,4.33
2018-05-16T19:26:47.075Z,4.60
2018-05-16T19:29:14.896Z,4.20
2018-05-16T19:31:42.711Z,4.27
2018-05-16T19:34:10.433Z,5.27
2018-05-16T19:36:38.241Z,4.30
2018-05-16T19:39:06.039Z,4.30
2018-05-16T19:41:33.769Z,4.70
2018-05-16T19:44:01.527Z,3.50
2018-05-16T19:46:29.406Z,4.50
2018-05-16T19:48:57.453Z,4.40
2018-05-16T19:51:25.239Z,4.30
2018-05-16T19:53:53.104Z,3.93
2018-05-16T19:56:20.795Z,4.70
2018-05-16T19:58:48.635Z,5.00
2018-05-16T20:01:16.396Z,4.47
2018-05-16T20:03:44.266Z,4.80
2018-05-16T20:06:11.984Z,5.17
2018-05-16T20:08:39.794Z,5.37
2018-05-16T20:11:07.659Z,5.50
2018-05-16T20:13:35.526Z,4.87
2018-05-16T20:16:03.266Z,5.40
2018-05-16T20:18:31.011Z,4.93
2018-05-16T20:20:58.819Z,6.03
2018-05-16T20:23:26.482Z,5.77
2018-05-16T20:25:54.247Z,5.27
2018-05-16T20:28:22.012Z,5.43
2018-05-16T20:30:49.981Z,5.63
2018-05-16T20:33:17.742Z,5.20
2018-05-16T20:35:45.613Z,5.73
2018-05-16T20:38:13.377Z,5.53
2018-05-16T20:40:41.244Z,6.03
2018-05-16T20:43:08.910Z,5.50
2018-05-16T20:45:36.671Z,5.40
2018-05-16T20:48:04.537Z,5.33
2018-05-16T20:50:32.404Z,5.60
2018-05-16T20:53:00.067Z,5.50
2018-05-16T20:55:27.932Z,5.60
2018-05-16T20:57:55.653Z,5.40
2018-05-16T21:00:23.463Z,4.60
2018-05-16T21:02:51.331Z,5.27
2018-05-16T21:05:19.277Z,5.03
2018-05-16T21:07:47.077Z,4.80
2018-05-16T21:10:14.826Z,5.70
2018-05-16T21:12:42.594Z,6.10
2018-05-16T21:15:10.460Z,5.33
2018-05-16T21:17:38.121Z,5.20
2018-05-16T21:20:06.189Z,4.97
2018-05-16T21:22:33.958Z,4.97
2018-05-16T21:25:01.617Z,5.60
2018-05-16T21:27:29.299Z,5.27
2018-05-16T21:29:56.935Z,5.23
2018-05-16T21:32:24.802Z,4.80
2018-05-16T21:34:52.592Z,4.70
2018-05-16T21:37:20.442Z,4.43
2018-05-16T21:39:48.313Z,5.33
2018-05-16T21:42:16.132Z,4.80
2018-05-16T21:44:44.273Z,4.20
2018-05-16T21:47:12.832Z,4.97
2018-05-16T21:49:40.487Z,4.00
2018-05-16T21:52:08.258Z,4.10
2018-05-16T21:54:36.083Z,4.07
2018-05-16T21:57:04.716Z,3.53
2018-05-16T21:59:32.419Z,4.57
2018-05-16T22:02:00.134Z,4.03
2018-05-16T22:04:28.104Z,4.00
2018-05-16T22:06:55.864Z,4.03
2018-05-16T22:09:23.685Z,3.97
2018-05-16T22:11:51.705Z,3.40
2018-05-16T22:14:19.469Z,4.40
2018-05-16T22:16:47.229Z,3.77
2018-05-16T22:19:14.952Z,3.80
2018-05-16T22:21:42.766Z,4.63
2018-05-16T22:24:10.485Z,3.77
2018-05-16T22:26:38.191Z,4.67
2018-05-16T22:29:05.895Z,4.60
2018-05-16T22:31:39.349Z,4.40
2018-05-16T22:34:12.640Z,5.07
2018-05-16T22:36:46.011Z,4.47
2018-05-16T22:39:19.227Z,4.20
2018-05-16T22:41:52.529Z,4.70
2018-05-16T22:44:20.292Z,5.00
2018-05-16T22:46:48.110Z,4.93
2018-05-16T22:49:15.924Z,5.30
2018-05-16T22:51:43.793Z,4.67
2018-05-16T22:54:11.506Z,5.30
2018-05-16T22:56:39.319Z,5.30
2018-05-16T22:59:07.144Z,5.40
2018-05-16T23:01:34.813Z,5.37
2018-05-16T23:04:02.578Z,4.90
2018-05-16T23:06:30.347Z,5.37
2018-05-16T23:08:58.085Z,5.40
2018-05-16T23:11:25.805Z,4.77
2018-05-16T23:13:53.619Z,5.00
2018-05-16T23:16:21.440Z,6.07
2018-05-16T23:18:49.409Z,6.00
2018-05-16T23:21:17.272Z,7.10
2018-05-16T23:23:45.038Z,8.07
2018-05-16T23:26:12.803Z,8.90
2018-05-16T23:28:40.669Z,9.37
2018-05-16T23:31:08.382Z,9.13
2018-05-16T23:33:36.301Z,9.10
2018-05-16T23:36:04.170Z,9.27
2018-05-16T23:38:32.041Z,8.90
2018-05-16T23:40:59.876Z,9.90
2018-05-16T23:43:27.668Z,9.80
2018-05-16T23:45:55.432Z,11.27
2018-05-16T23:48:23.153Z,10.40
2018-05-16T23:50:50.851Z,11.23
2018-05-16T23:53:18.685Z,11.43
2018-05-16T23:55:46.452Z,12.50
2018-05-16T23:58:14.250Z,11.57
